Time;durP1;ratioP1;P1;durP2;ratioP2;P2;SDS_P1;SDS_P2;PMS_P1;PMS_P2;Temp;Humidity;BMP_temperature;BMP_pressure;BME280_temperature;BME280_humidity;BME280_pressure;Samples;Min_cycle;Max_cycle;Signal;HPM_P1;HPM_P2
2022/07/12 00:00:00;;;;;;;5.07;1.92;;;;;;;16.38;55.46;100591.63;5073923;28;20123;-68
2022/07/12 00:02:29;;;;;;;5.15;1.92;;;;;;;16.23;57.26;100593.72;5073652;28;20136;-68
2022/07/12 00:04:58;;;;;;;4.65;2.20;;;;;;;16.13;58.31;100590.03;5073581;28;20090;-68
2022/07/12 00:07:27;;;;;;;6.90;2.08;;;;;;;16.02;58.53;100585.50;5073440;28;20040;-68
2022/07/12 00:09:56;;;;;;;5.65;1.85;;;;;;;15.97;59.28;100585.81;5073602;28;20512;-68
2022/07/12 00:12:24;;;;;;;7.40;2.08;;;;;;;16.01;59.59;100581.91;5073661;28;20059;-67
2022/07/12 00:14:52;;;;;;;6.05;2.10;;;;;;;16.08;59.17;100584.13;5055473;28;20064;-68
2022/07/12 00:17:20;;;;;;;8.77;2.00;;;;;;;16.01;58.12;100586.44;5073301;28;20078;-68
2022/07/12 00:19:49;;;;;;;5.93;2.13;;;;;;;15.98;59.95;100584.00;5073310;28;20056;-68
2022/07/12 00:22:17;;;;;;;6.50;1.88;;;;;;;16.09;58.14;100580.47;5073486;28;20040;-67
2022/07/12 00:24:46;;;;;;;5.30;2.00;;;;;;;16.01;59.38;100573.84;5072918;28;20474;-68
2022/07/12 00:27:14;;;;;;;3.83;1.98;;;;;;;15.91;59.87;100575.53;5073693;28;20107;-67
2022/07/12 00:29:42;;;;;;;8.32;2.03;;;;;;;15.88;60.15;100578.47;5073070;28;20049;-68
2022/07/12 00:32:10;;;;;;;6.57;2.20;;;;;;;15.90;59.81;100576.50;5073102;28;20067;-67
2022/07/12 00:34:38;;;;;;;5.70;2.10;;;;;;;15.85;61.12;100578.72;5073070;28;20493;-67
2022/07/12 00:37:07;;;;;;;5.38;1.65;;;;;;;15.88;59.60;100577.59;5073229;28;20098;-67
2022/07/12 00:39:36;;;;;;;4.30;1.70;;;;;;;15.89;59.45;100576.63;5072803;28;20074;-67
2022/07/12 00:42:05;;;;;;;5.45;2.00;;;;;;;15.83;59.88;100583.34;5072986;28;20051;-67
2022/07/12 00:44:34;;;;;;;3.10;1.60;;;;;;;15.79;60.03;100578.31;5073003;28;20048;-68
2022/07/12 00:47:03;;;;;;;6.72;1.90;;;;;;;15.87;59.38;100592.03;5072899;28;20048;-67
2022/07/12 00:49:32;;;;;;;6.20;1.70;;;;;;;15.91;59.32;100583.59;5072943;28;20064;-68
2022/07/12 00:52:01;;;;;;;5.05;2.10;;;;;;;15.78;60.01;100588.22;5073069;28;20053;-67
2022/07/12 00:54:29;;;;;;;3.72;1.63;;;;;;;15.67;59.71;100590.88;5072719;28;20040;-68
2022/07/12 00:56:57;;;;;;;6.15;1.67;;;;;;;15.51;60.76;100587.59;5072942;28;20037;-67
2022/07/12 00:59:27;;;;;;;4.53;1.77;;;;;;;15.44;61.54;100584.50;5073075;28;20044;-68
2022/07/12 01:01:55;;;;;;;3.75;1.50;;;;;;;15.40;62.18;100594.63;5072866;28;20049;-67
2022/07/12 01:04:25;;;;;;;5.78;1.90;;;;;;;15.35;61.91;100601.34;5072987;28;20044;-67
2022/07/12 01:06:54;;;;;;;3.42;1.60;;;;;;;15.34;61.96;100595.06;5072725;28;20040;-68
2022/07/12 01:09:22;;;;;;;4.15;1.48;;;;;;;15.55;61.14;100594.47;5072955;28;20454;-68
2022/07/12 01:11:50;;;;;;;2.90;1.35;;;;;;;15.61;60.07;100594.88;5072882;28;20136;-67
2022/07/12 01:14:19;;;;;;;3.65;1.48;;;;;;;15.67;59.25;100590.88;5072860;28;20057;-67
2022/07/12 01:16:49;;;;;;;5.15;1.35;;;;;;;15.78;58.81;100593.59;5072623;28;20048;-67
2022/07/12 01:19:21;;;;;;;3.55;1.55;;;;;;;15.80;58.88;100593.47;5072738;28;20040;-67
2022/07/12 01:21:51;;;;;;;4.20;1.20;;;;;;;15.83;58.69;100590.56;5072547;28;20041;-67
2022/07/12 01:24:21;;;;;;;2.45;1.20;;;;;;;15.70;59.15;100585.25;5072667;28;20044;-67
2022/07/12 01:26:50;;;;;;;3.10;1.08;;;;;;;15.74;59.03;100586.75;5072482;28;20412;-67
2022/07/12 01:29:19;;;;;;;3.05;1.10;;;;;;;15.66;59.07;100584.63;5072634;28;20129;-67
2022/07/12 01:31:48;;;;;;;4.82;1.20;;;;;;;15.71;58.79;100581.59;5072233;28;20486;-67
2022/07/12 01:34:16;;;;;;;5.95;1.40;;;;;;;15.67;59.28;100588.19;5072585;28;20047;-67
2022/07/12 01:36:45;;;;;;;4.95;1.60;;;;;;;15.61;59.46;100580.56;5074866;28;20045;-67
2022/07/12 01:39:14;;;;;;;4.40;1.42;;;;;;;15.60;59.41;100574.34;5076399;28;20496;-67
2022/07/12 01:41:44;;;;;;;3.33;1.30;;;;;;;15.51;59.50;100563.38;5076314;28;20048;-67
2022/07/12 01:44:13;;;;;;;4.22;1.40;;;;;;;15.53;59.30;100569.50;5076364;28;20068;-67
2022/07/12 01:46:41;;;;;;;3.38;1.17;;;;;;;15.52;59.17;100568.66;5076321;28;20051;-67
2022/07/12 01:49:09;;;;;;;3.15;1.27;;;;;;;15.43;59.49;100566.66;5076098;28;20040;-67
2022/07/12 01:51:37;;;;;;;3.90;1.55;;;;;;;15.46;59.49;100567.31;5076008;28;20053;-67
2022/07/12 01:54:05;;;;;;;3.10;1.30;;;;;;;15.39;59.82;100576.78;5076475;28;20040;-67
2022/07/12 01:56:34;;;;;;;3.40;1.35;;;;;;;15.35;60.41;100569.94;5075913;28;20124;-67
2022/07/12 01:59:03;;;;;;;2.80;1.38;;;;;;;15.37;59.90;100576.06;5076033;28;20044;-67
2022/07/12 02:01:33;;;;;;;3.13;1.20;;;;;;;15.33;60.02;100569.19;5076062;28;20045;-75
2022/07/12 02:04:03;;;;;;;3.85;1.40;;;;;;;15.23;60.43;100570.84;5075776;28;20397;-67
2022/07/12 02:06:32;;;;;;;6.88;1.63;;;;;;;15.15;60.63;100566.06;5075938;28;20040;-77
2022/07/12 02:09:00;;;;;;;4.10;1.40;;;;;;;15.10;61.15;100570.03;5075709;28;20047;-67
2022/07/12 02:11:28;;;;;;;3.42;1.40;;;;;;;15.13;60.85;100569.81;5057977;28;20052;-67
2022/07/12 02:13:56;;;;;;;3.50;1.52;;;;;;;15.10;61.09;100567.34;5075759;28;20048;-67
2022/07/12 02:16:26;;;;;;;5.65;1.40;;;;;;;15.13;60.85;100565.28;5075894;28;20045;-67
2022/07/12 02:18:54;;;;;;;3.78;1.20;;;;;;;15.15;60.83;100578.59;5075429;28;20044;-67
2022/07/12 02:21:22;;;;;;;4.07;1.52;;;;;;;15.11;61.03;100566.38;5075616;28;20547;-67
2022/07/12 02:23:50;;;;;;;3.63;1.13;;;;;;;15.05;61.44;100566.81;5075355;28;20052;-67
2022/07/12 02:26:18;;;;;;;2.70;1.33;;;;;;;15.11;61.06;100571.75;5075348;28;20123;-67
2022/07/12 02:28:47;;;;;;;3.50;1.33;;;;;;;15.04;61.91;100575.84;5075098;28;20045;-67
2022/07/12 02:31:15;;;;;;;4.40;1.50;;;;;;;15.09;61.56;100568.34;5075766;28;20115;-66
2022/07/12 02:33:45;;;;;;;5.70;1.60;;;;;;;14.98;61.52;100577.19;5057358;28;20045;-67
2022/07/12 02:36:13;;;;;;;4.20;1.52;;;;;;;15.01;61.80;100566.19;5075503;28;20082;-67
2022/07/12 02:38:41;;;;;;;5.60;1.60;;;;;;;14.99;61.84;100567.28;5075233;28;20071;-67
2022/07/12 02:41:09;;;;;;;3.58;1.40;;;;;;;14.98;62.38;100571.81;5075282;28;20049;-67
2022/07/12 02:43:38;;;;;;;2.38;1.13;;;;;;;15.00;61.92;100574.38;5075126;28;20068;-68
2022/07/12 02:46:07;;;;;;;4.00;1.42;;;;;;;14.99;62.61;100572.66;5075193;28;20143;-67
2022/07/12 02:48:36;;;;;;;5.07;1.38;;;;;;;15.00;62.30;100582.44;5055859;28;20082;-68
2022/07/12 02:51:07;;;;;;;5.20;1.42;;;;;;;14.97;62.59;100580.00;5075199;28;20094;-67
2022/07/12 02:53:36;;;;;;;2.38;0.98;;;;;;;15.08;61.80;100588.13;5074992;28;20094;-68
2022/07/12 02:56:08;;;;;;;3.53;1.20;;;;;;;15.10;62.26;100583.47;5075079;28;20046;-67
2022/07/12 02:58:37;;;;;;;4.35;1.23;;;;;;;15.14;61.68;100593.00;5074887;28;20052;-67
2022/07/12 03:01:05;;;;;;;4.00;1.50;;;;;;;15.15;61.57;100590.25;5074965;28;20128;-67
2022/07/12 03:03:33;;;;;;;3.72;1.35;;;;;;;15.15;61.63;100590.25;5074945;28;20044;-67
2022/07/12 03:06:02;;;;;;;4.15;1.55;;;;;;;15.02;62.12;100594.78;5074685;28;20041;-67
2022/07/12 03:08:31;;;;;;;2.60;1.10;;;;;;;15.05;62.21;100597.22;5074809;28;20044;-67
2022/07/12 03:10:59;;;;;;;3.45;1.20;;;;;;;15.02;62.36;100589.41;5074514;28;20036;-67
2022/07/12 03:13:27;;;;;;;2.80;1.27;;;;;;;15.02;62.61;100589.41;5074828;28;20068;-67
2022/07/12 03:15:56;;;;;;;3.45;1.60;;;;;;;15.02;62.60;100588.53;5074707;28;20046;-67
2022/07/12 03:18:24;;;;;;;7.68;1.77;;;;;;;15.08;62.54;100593.47;5056591;28;20132;-67
2022/07/12 03:20:52;;;;;;;4.45;1.50;;;;;;;15.17;61.96;100595.50;5074062;28;20051;-67
2022/07/12 03:23:21;;;;;;;5.25;1.50;;;;;;;15.27;61.87;100599.22;5074697;28;20040;-67
2022/07/12 03:25:50;;;;;;;2.97;1.20;;;;;;;15.10;62.43;100596.91;5074326;28;20045;-67
2022/07/12 03:28:18;;;;;;;2.28;1.17;;;;;;;15.11;62.54;100594.09;5074266;28;20079;-67
2022/07/12 03:30:46;;;;;;;3.75;1.35;;;;;;;15.19;62.03;100601.59;5074068;28;20063;-67
2022/07/12 03:33:15;;;;;;;5.60;1.55;;;;;;;15.31;62.08;100594.47;5074098;28;20041;-67
2022/07/12 03:35:43;;;;;;;3.40;1.40;;;;;;;15.30;62.09;100603.50;5074049;28;20041;-67
2022/07/12 03:38:11;;;;;;;4.25;1.30;;;;;;;15.36;62.09;100603.91;5074222;28;20400;-67
2022/07/12 03:40:39;;;;;;;3.28;1.20;;;;;;;15.52;61.20;100600.06;5074031;28;20446;-67
2022/07/12 03:43:08;;;;;;;4.72;1.40;;;;;;;15.88;60.15;100591.91;5073995;28;20045;-68
2022/07/12 03:45:37;;;;;;;3.22;1.20;;;;;;;16.48;57.76;100595.31;5073953;28;20052;-68
2022/07/12 03:48:06;;;;;;;3.83;1.25;;;;;;;17.09;55.42;100591.28;5073756;28;20124;-67
2022/07/12 03:50:34;;;;;;;6.07;1.60;;;;;;;17.48;53.96;100588.97;5074070;28;20052;-67
2022/07/12 03:53:02;;;;;;;3.58;1.70;;;;;;;17.78;53.33;100590.09;5073773;28;20041;-67
2022/07/12 03:55:30;;;;;;;4.65;1.35;;;;;;;18.91;49.59;100597.25;5073720;28;20067;-67
2022/07/12 03:57:58;;;;;;;5.30;1.40;;;;;;;19.28;48.83;100600.19;5073348;28;20055;-68
2022/07/12 04:00:28;;;;;;;4.43;1.40;;;;;;;19.31;48.50;100594.53;5073531;28;20409;-67
2022/07/12 04:02:56;;;;;;;6.50;1.80;;;;;;;20.17;46.23;100597.38;5073559;28;20040;-68
2022/07/12 04:05:26;;;;;;;4.88;1.48;;;;;;;20.32;45.39;100593.22;5073466;28;20442;-68
2022/07/12 04:07:55;;;;;;;3.40;1.55;;;;;;;20.33;45.57;100584.09;5073214;28;20041;-68
2022/07/12 04:10:23;;;;;;;4.53;1.55;;;;;;;20.49;44.92;100597.91;5073395;28;20045;-68
2022/07/12 04:12:51;;;;;;;6.88;1.65;;;;;;;20.70;44.33;100594.97;5072832;28;20508;-67
2022/07/12 04:15:20;;;;;;;5.38;1.58;;;;;;;21.05;43.16;100594.22;5073618;28;20119;-67
2022/07/12 04:17:50;;;;;;;5.75;1.50;;;;;;;20.71;44.36;100595.81;5073341;28;20460;-68
2022/07/12 04:20:19;;;;;;;5.35;1.65;;;;;;;21.26;43.18;100601.25;5073297;28;20049;-68
2022/07/12 04:22:47;;;;;;;5.88;1.50;;;;;;;21.48;42.10;100603.53;5073026;28;20041;-68
2022/07/12 04:25:15;;;;;;;3.33;1.50;;;;;;;21.70;42.11;100605.78;5073114;28;20175;-68
2022/07/12 04:27:44;;;;;;;3.28;1.20;;;;;;;21.99;41.30;100610.97;5072802;28;20068;-68
2022/07/12 04:30:12;;;;;;;3.83;1.33;;;;;;;20.86;43.54;100607.88;5073341;28;20052;-67
2022/07/12 04:32:40;;;;;;;4.68;1.25;;;;;;;22.13;41.27;100615.03;5073283;28;20036;-78
2022/07/12 04:35:10;;;;;;;2.55;1.10;;;;;;;22.03;41.05;100606.09;5055398;28;20052;-67
2022/07/12 04:37:38;;;;;;;4.10;1.60;;;;;;;22.38;40.59;100604.31;5073682;28;20041;-67
2022/07/12 04:40:07;;;;;;;4.03;1.50;;;;;;;22.74;39.77;100596.88;5072858;28;20384;-68
2022/07/12 04:42:35;;;;;;;5.13;1.38;;;;;;;22.18;41.03;100606.38;5073188;28;20040;-67
2022/07/12 04:45:05;;;;;;;4.28;1.38;;;;;;;22.63;40.07;100592.59;5072986;28;20045;-67
2022/07/12 04:47:36;;;;;;;4.15;1.40;;;;;;;23.15;38.94;100603.38;5073002;28;20123;-67
2022/07/12 04:50:06;;;;;;;2.88;1.25;;;;;;;21.43;42.38;100605.88;5072820;28;20075;-67
2022/07/12 04:52:36;;;;;;;4.20;1.27;;;;;;;22.81;39.57;100596.06;5072846;28;20040;-67
2022/07/12 04:55:05;;;;;;;2.60;1.27;;;;;;;23.53;38.64;100591.03;5072814;28;20040;-67
2022/07/12 04:57:33;;;;;;;3.92;1.40;;;;;;;24.64;37.44;100593.25;5072903;28;20078;-67
2022/07/12 05:00:01;;;;;;;2.72;1.10;;;;;;;23.95;37.49;100595.56;5072681;28;20564;-67
2022/07/12 05:02:33;;;;;;;4.10;1.30;;;;;;;23.88;37.56;100603.53;5073122;28;20040;-67
2022/07/12 05:05:01;;;;;;;8.07;1.60;;;;;;;24.33;36.89;100607.66;5072568;28;20098;-67
2022/07/12 05:07:30;;;;;;;4.60;1.20;;;;;;;24.02;37.18;100602.00;5072649;28;20055;-67
2022/07/12 05:10:00;;;;;;;4.15;1.30;;;;;;;24.62;36.27;100598.91;5072725;28;20045;-67
2022/07/12 05:12:28;;;;;;;4.22;1.20;;;;;;;24.87;36.35;100596.91;5076762;28;20401;-67
2022/07/12 05:14:56;;;;;;;3.67;1.08;;;;;;;24.39;36.72;100603.38;5076493;28;20059;-68
2022/07/12 05:17:25;;;;;;;5.07;1.42;;;;;;;25.02;36.15;100605.25;5076631;28;20040;-68
2022/07/12 05:19:53;;;;;;;5.63;1.70;;;;;;;25.36;35.42;100602.16;5076666;28;20448;-68
2022/07/12 05:22:21;;;;;;;4.65;1.27;;;;;;;25.68;34.69;100607.44;5076592;28;20489;-68
2022/07/12 05:24:49;;;;;;;5.78;1.58;;;;;;;25.00;35.60;100613.59;5076624;28;20040;-68
2022/07/12 05:27:19;;;;;;;3.67;1.20;;;;;;;24.60;36.17;100600.91;5076820;28;20446;-68
2022/07/12 05:29:47;;;;;;;2.55;1.20;;;;;;;23.95;37.69;100607.31;5076380;28;20378;-68
2022/07/12 05:32:15;;;;;;;6.57;1.60;;;;;;;24.34;36.88;100612.06;5076609;28;20068;-68
2022/07/12 05:34:43;;;;;;;5.20;1.20;;;;;;;24.61;37.09;100615.41;5058620;28;20044;-67
2022/07/12 05:37:11;;;;;;;6.50;1.40;;;;;;;24.98;35.80;100620.22;5076278;28;20448;-68
2022/07/12 05:39:39;;;;;;;3.08;1.00;;;;;;;25.62;34.90;100607.31;5076299;28;20052;-68
2022/07/12 05:42:12;;;;;;;2.00;1.08;;;;;;;25.76;34.79;100624.81;5076794;28;20092;-68
2022/07/12 05:44:42;;;;;;;3.63;1.50;;;;;;;25.62;34.78;100624.53;5076061;28;20044;-68
2022/07/12 05:47:10;;;;;;;3.38;1.27;;;;;;;24.32;37.08;100622.31;5075857;28;20442;-67
2022/07/12 05:49:38;;;;;;;4.65;1.38;;;;;;;25.27;35.09;100620.47;5076131;28;20382;-67
2022/07/12 05:54:52;;;;;;;3.28;1.42;;;;;;;25.72;34.58;100623.47;5075674;28;20051;-68
2022/07/12 05:57:24;;;;;;;3.85;1.20;;;;;;;24.35;37.11;100629.28;5076365;28;20040;-67
2022/07/12 05:59:53;;;;;;;7.75;1.45;;;;;;;24.33;37.18;100626.72;5057802;28;20080;-67
2022/07/12 06:02:22;;;;;;;5.20;1.48;;;;;;;24.97;35.95;100629.44;5076020;28;20044;-67
2022/07/12 06:04:50;;;;;;;2.80;1.20;;;;;;;25.86;34.43;100625.41;5075635;28;20466;-68
2022/07/12 06:07:18;;;;;;;3.35;1.40;;;;;;;24.86;35.88;100622.50;5075753;28;20102;-67
2022/07/12 06:09:47;;;;;;;4.47;1.27;;;;;;;26.20;34.03;100617.63;5075853;28;20541;-67
2022/07/12 06:12:15;;;;;;;6.28;1.40;;;;;;;25.46;34.71;100627.34;5075625;28;20094;-67
2022/07/12 06:14:43;;;;;;;7.45;1.60;;;;;;;25.87;33.84;100627.13;5057521;28;20114;-68
2022/07/12 06:17:13;;;;;;;2.78;1.00;;;;;;;23.43;38.18;100618.41;5057315;28;20114;-67
2022/07/12 06:19:41;;;;;;;5.60;1.40;;;;;;;24.86;35.87;100624.38;5075540;28;20075;-67
2022/07/12 06:22:09;;;;;;;4.45;1.17;;;;;;;24.77;35.94;100612.63;5074976;28;20060;-67
2022/07/12 06:24:37;;;;;;;4.32;1.35;;;;;;;24.86;35.44;100610.75;5075666;28;20044;-67
2022/07/12 06:27:06;;;;;;;7.72;1.65;;;;;;;26.03;33.60;100610.59;5075397;28;20400;-67
2022/07/12 06:29:34;;;;;;;1.88;0.90;;;;;;;24.60;36.10;100610.97;5075492;28;20114;-67
2022/07/12 06:32:02;;;;;;;4.68;1.52;;;;;;;26.07;33.92;100606.47;5075117;28;20551;-68
2022/07/12 06:34:31;;;;;;;3.20;1.02;;;;;;;25.95;34.00;100613.38;5074949;28;20044;-68
2022/07/12 06:37:00;;;;;;;3.80;0.98;;;;;;;26.31;32.67;100626.41;5075077;28;20044;-68
2022/07/12 06:39:28;;;;;;;4.20;0.88;;;;;;;25.50;33.88;100620.53;5075048;28;20055;-67
2022/07/12 06:41:56;;;;;;;6.25;1.20;;;;;;;26.68;32.56;100620.09;5074970;28;20048;-68
2022/07/12 06:44:24;;;;;;;6.93;1.00;;;;;;;25.49;34.06;100621.56;5075236;28;20490;-67
2022/07/12 06:46:52;;;;;;;4.60;1.20;;;;;;;24.56;35.77;100621.41;5056767;28;20486;-68
2022/07/12 06:49:20;;;;;;;5.35;1.30;;;;;;;26.63;32.19;100622.50;5075083;28;20048;-68
2022/07/12 06:51:49;;;;;;;2.30;0.95;;;;;;;27.17;31.75;100620.38;5075087;28;20037;-67
2022/07/12 06:54:18;;;;;;;5.35;1.25;;;;;;;25.36;34.12;100608.47;5057389;28;20075;-67
2022/07/12 06:56:46;;;;;;;4.43;1.00;;;;;;;25.17;33.99;100619.00;5075164;28;20048;-68
2022/07/12 06:59:14;;;;;;;5.10;1.25;;;;;;;25.11;34.01;100623.31;5074842;28;20040;-67
2022/07/12 07:01:43;;;;;;;4.70;1.00;;;;;;;24.74;34.66;100629.38;5074686;28;20412;-67
2022/07/12 07:04:12;;;;;;;4.68;1.02;;;;;;;24.84;34.57;100619.09;5074535;28;20485;-67
2022/07/12 07:06:40;;;;;;;2.95;1.23;;;;;;;24.12;35.89;100612.72;5056762;28;20080;-67
2022/07/12 07:09:10;;;;;;;2.72;0.95;;;;;;;23.28;37.73;100611.94;5074266;28;20068;-67
2022/07/12 07:11:38;;;;;;;3.85;1.17;;;;;;;23.50;37.23;100609.59;5074512;28;20083;-67
2022/07/12 07:14:06;;;;;;;3.33;1.17;;;;;;;23.01;38.63;100623.06;5056168;28;20401;-67
2022/07/12 07:16:34;;;;;;;2.22;1.10;;;;;;;23.62;37.35;100611.84;5074324;28;20044;-67
2022/07/12 07:19:03;;;;;;;4.50;1.40;;;;;;;23.39;37.57;100602.59;5074054;28;20036;-67
2022/07/12 07:21:31;;;;;;;4.90;1.33;;;;;;;23.08;38.25;100613.22;5074633;28;20047;-67
2022/07/12 07:23:59;;;;;;;4.97;1.50;;;;;;;23.20;38.39;100621.94;5074159;28;20044;-67
2022/07/12 07:26:28;;;;;;;1.92;0.93;;;;;;;23.11;37.98;100612.88;5074303;28;20448;-67
2022/07/12 07:31:42;;;;;;;3.28;1.13;;;;;;;23.12;37.87;100615.44;5074387;28;20046;-67
2022/07/12 07:34:10;;;;;;;4.38;1.50;;;;;;;23.35;37.65;100614.81;5055390;28;20131;-68
2022/07/12 07:36:38;;;;;;;5.03;1.27;;;;;;;22.91;38.56;100620.47;5056123;28;20126;-67
2022/07/12 07:39:07;;;;;;;3.47;1.08;;;;;;;22.49;39.66;100606.78;5055744;28;20109;-67
2022/07/12 07:41:36;;;;;;;3.50;1.05;;;;;;;22.25;40.05;100631.91;5074235;28;20036;-67
2022/07/12 07:44:05;;;;;;;3.88;1.10;;;;;;;22.59;39.12;100606.69;5073730;28;20044;-67
2022/07/12 07:46:33;;;;;;;3.33;1.17;;;;;;;22.63;38.77;100614.34;5055970;28;20048;-66
2022/07/12 07:49:02;;;;;;;3.70;1.23;;;;;;;22.29;39.89;100617.00;5073630;28;20492;-67
2022/07/12 07:51:30;;;;;;;5.78;1.52;;;;;;;22.46;39.05;100620.69;5074041;28;20426;-68
2022/07/12 07:53:58;;;;;;;3.92;1.25;;;;;;;22.71;39.31;100610.81;5073625;28;20037;-68
2022/07/12 07:56:27;;;;;;;4.35;0.95;;;;;;;22.31;39.90;100601.41;5073681;28;20051;-67
2022/07/12 07:58:56;;;;;;;3.42;1.10;;;;;;;22.61;39.01;100613.66;5055536;28;20049;-68
2022/07/12 08:01:42;;;;;;;3.95;1.20;;;;;;;23.01;38.39;100613.03;5073667;28;20119;-68
2022/07/12 08:04:10;;;;;;;2.60;1.20;;;;;;;23.27;38.69;100607.50;5073000;28;20037;-68
2022/07/12 08:06:39;;;;;;;3.33;1.08;;;;;;;22.83;38.36;100610.34;5073630;28;20120;-68
2022/07/12 08:09:08;;;;;;;3.83;0.90;;;;;;;22.68;38.37;100617.44;5073385;28;20485;-67
2022/07/12 08:11:40;;;;;;;3.20;1.17;;;;;;;22.82;38.74;100613.25;5055579;28;20052;-68
2022/07/12 08:14:10;;;;;;;3.90;1.10;;;;;;;23.01;38.56;100606.72;5072930;28;20053;-68
2022/07/12 08:16:40;;;;;;;4.00;1.30;;;;;;;22.93;38.60;100615.69;5073372;28;20044;-68
2022/07/12 08:19:09;;;;;;;3.05;0.98;;;;;;;23.07;38.23;100609.66;5072975;28;20055;-68
2022/07/12 08:21:37;;;;;;;3.95;1.27;;;;;;;22.97;38.48;100614.38;5073236;28;20092;-68
2022/07/12 08:24:06;;;;;;;3.63;1.20;;;;;;;22.94;38.53;100619.28;5073037;28;20075;-68
2022/07/12 08:26:34;;;;;;;9.05;1.42;;;;;;;22.88;37.67;100612.63;5073092;28;20043;-67
2022/07/12 08:29:02;;;;;;;3.75;0.98;;;;;;;22.72;37.96;100609.78;5072846;28;20044;-68
2022/07/12 08:31:32;;;;;;;5.32;1.30;;;;;;;23.33;37.39;100606.81;5072812;28;20040;-68
2022/07/12 08:34:00;;;;;;;2.20;0.75;;;;;;;23.36;37.07;100601.06;5054842;28;20063;-68
2022/07/12 08:36:28;;;;;;;3.42;0.85;;;;;;;23.10;37.35;100594.88;5073283;28;20055;-68
2022/07/12 08:39:01;;;;;;;4.88;1.17;;;;;;;23.27;36.12;100599.34;5072804;28;20093;-68
2022/07/12 08:41:29;;;;;;;1.40;0.70;;;;;;;23.34;36.29;100597.63;5073232;28;20399;-68
2022/07/12 08:43:57;;;;;;;2.53;0.90;;;;;;;23.33;36.54;100595.94;5072888;28;20045;-68
2022/07/12 08:46:26;;;;;;;3.78;1.05;;;;;;;23.61;36.21;100592.97;5072198;28;20044;-68
2022/07/12 08:48:55;;;;;;;5.38;1.25;;;;;;;23.34;36.49;100603.09;5072945;28;20051;-68
2022/07/12 08:51:23;;;;;;;3.25;1.00;;;;;;;23.23;36.17;100589.78;5072763;28;20037;-67
2022/07/12 08:54:06;;;;;;;7.20;1.13;;;;;;;23.46;36.11;100594.63;5073080;28;20397;-67
2022/07/12 08:56:37;;;;;;;3.17;0.98;;;;;;;23.14;36.51;100596.22;5073147;28;20041;-67
2022/07/12 08:59:10;;;;;;;1.30;0.82;;;;;;;23.27;36.64;100584.88;5054826;28;20390;-67
2022/07/12 09:01:47;;;;;;;3.63;0.90;;;;;;;23.26;36.03;100584.03;5073105;28;20049;-67
2022/07/12 09:04:18;;;;;;;7.32;1.30;;;;;;;23.45;34.64;100596.50;5072543;28;20040;-67
2022/07/12 09:06:47;;;;;;;4.57;0.90;;;;;;;23.54;34.41;100597.34;5073086;28;20040;-67
2022/07/12 09:09:27;;;;;;;1.70;0.95;;;;;;;23.73;34.04;100605.22;5072736;28;20115;-67
2022/07/12 09:11:55;;;;;;;1.77;0.88;;;;;;;23.64;34.36;100592.63;5072838;28;20033;-67
2022/07/12 09:14:24;;;;;;;8.05;1.30;;;;;;;23.34;34.99;100611.25;5072862;28;20438;-67
2022/07/12 09:17:04;;;;;;;2.50;0.95;;;;;;;23.39;35.56;100603.44;5072469;28;20503;-67
2022/07/12 09:19:34;;;;;;;4.47;0.88;;;;;;;23.57;35.42;100592.44;5072841;28;20412;-67
2022/07/12 09:22:03;;;;;;;4.20;1.20;;;;;;;23.47;35.78;100586.28;5072624;28;20052;-67
2022/07/12 09:24:32;;;;;;;6.90;1.23;;;;;;;23.54;35.58;100586.44;5072779;28;20123;-67
2022/07/12 09:27:02;;;;;;;3.28;1.15;;;;;;;23.75;35.67;100578.69;5072385;28;20494;-68
2022/07/12 09:29:31;;;;;;;5.68;1.50;;;;;;;23.69;35.07;100584.81;5054496;28;20102;-67
2022/07/12 09:37:43;;;;;;;6.07;1.48;;;;;;;23.67;35.25;100579.53;5072501;28;20482;-67
2022/07/12 09:40:12;;;;;;;2.00;0.90;;;;;;;23.39;35.65;100578.94;5072300;28;20051;-67
2022/07/12 09:42:41;;;;;;;8.85;1.52;;;;;;;23.54;35.12;100579.13;5072570;28;20045;-67
2022/07/12 09:45:11;;;;;;;1.67;0.80;;;;;;;23.83;34.68;100569.66;5054447;28;20055;-67
2022/07/12 09:47:39;;;;;;;3.13;1.00;;;;;;;24.34;34.15;100557.56;5072411;28;20127;-67
2022/07/12 09:50:10;;;;;;;2.63;0.98;;;;;;;24.04;34.04;100564.56;5071946;28;20046;-67
2022/07/12 09:52:39;;;;;;;2.55;0.80;;;;;;;24.18;33.62;100568.44;5072553;28;20044;-67
2022/07/12 09:55:10;;;;;;;5.75;1.30;;;;;;;24.23;33.32;100582.41;5071953;28;20470;-67
2022/07/12 09:57:41;;;;;;;5.25;1.40;;;;;;;24.21;33.78;100590.75;5074697;28;20042;-67
2022/07/12 10:00:11;;;;;;;2.25;1.00;;;;;;;24.00;33.88;100571.34;5075767;28;20043;-67
2022/07/12 10:02:40;;;;;;;3.45;0.93;;;;;;;24.24;33.38;100574.06;5076165;28;20119;-67
2022/07/12 10:05:11;;;;;;;2.88;1.10;;;;;;;24.09;32.95;100572.19;5075711;28;20036;-67
2022/07/12 10:07:40;;;;;;;3.70;1.25;;;;;;;24.27;33.21;100567.41;5075971;28;20041;-67
2022/07/12 10:10:11;;;;;;;4.05;1.00;;;;;;;24.43;32.55;100578.31;5075459;28;20047;-68
2022/07/12 10:12:41;;;;;;;4.43;1.13;;;;;;;24.66;32.72;100558.47;5075751;28;20082;-67
2022/07/12 10:15:15;;;;;;;4.05;0.90;;;;;;;24.32;32.88;100548.72;5075346;28;20401;-68
2022/07/12 10:17:52;;;;;;;4.32;1.20;;;;;;;24.58;32.78;100559.34;5075719;28;20068;-67
2022/07/12 10:20:24;;;;;;;3.28;1.10;;;;;;;24.58;32.60;100548.44;5075327;28;20045;-67
2022/07/12 10:22:54;;;;;;;2.80;0.90;;;;;;;25.20;32.30;100547.69;5075641;28;20040;-67
2022/07/12 10:25:32;;;;;;;3.17;1.30;;;;;;;25.09;32.80;100552.53;5075285;28;20044;-67
2022/07/12 10:28:01;;;;;;;2.60;1.10;;;;;;;24.59;33.28;100555.59;5075332;28;20043;-67
2022/07/12 10:30:30;;;;;;;1.65;1.00;;;;;;;24.59;33.26;100558.31;5057456;28;20121;-67
2022/07/12 10:33:00;;;;;;;4.32;1.20;;;;;;;24.49;33.41;100550.34;5075324;28;20469;-67
2022/07/12 10:35:31;;;;;;;4.25;1.15;;;;;;;24.44;33.15;100546.47;5075273;28;20430;-67
2022/07/12 10:38:18;;;;;;;3.72;1.17;;;;;;;24.64;33.13;100547.75;5075380;28;20041;-67
2022/07/12 10:40:48;;;;;;;4.15;1.30;;;;;;;24.67;33.02;100543.81;5075444;28;20041;-67
2022/07/12 10:43:21;;;;;;;2.65;1.08;;;;;;;24.32;33.62;100537.81;5074908;28;20048;-67
2022/07/12 10:45:50;;;;;;;3.72;0.90;;;;;;;24.21;34.04;100547.13;5075233;28;20049;-67
2022/07/12 10:48:25;;;;;;;3.63;1.17;;;;;;;24.08;34.67;100543.25;5056789;28;20140;-67
2022/07/12 10:50:57;;;;;;;4.38;1.10;;;;;;;24.57;34.05;100534.97;5056818;28;20601;-67
2022/07/12 10:53:33;;;;;;;2.95;1.30;;;;;;;24.32;34.64;100537.81;5074860;28;20040;-67
2022/07/12 10:56:09;;;;;;;6.05;1.25;;;;;;;24.67;34.01;100544.66;5075206;28;20040;-67
2022/07/12 10:58:40;;;;;;;7.88;1.30;;;;;;;24.57;34.22;100545.88;5074637;28;20545;-67
2022/07/12 11:01:10;;;;;;;6.55;1.52;;;;;;;24.81;33.56;100548.53;5074823;28;20048;-68
2022/07/12 11:03:40;;;;;;;4.95;1.33;;;;;;;24.73;33.08;100532.19;5057227;28;20106;-67
2022/07/12 11:06:11;;;;;;;3.53;1.20;;;;;;;24.68;33.29;100542.78;5056478;28;20049;-67
2022/07/12 11:08:50;;;;;;;7.95;1.50;;;;;;;24.61;34.83;100553.56;5073888;28;20374;-68
2022/07/12 11:11:21;;;;;;;4.22;1.10;;;;;;;23.94;35.61;100563.88;5074727;28;20476;-68
2022/07/12 11:13:50;;;;;;;3.78;1.23;;;;;;;23.40;36.83;100558.03;5074585;28;20453;-67
2022/07/12 11:16:18;;;;;;;3.30;1.02;;;;;;;23.14;37.68;100563.56;5074290;28;20049;-67
2022/07/12 11:18:46;;;;;;;3.38;0.80;;;;;;;23.11;38.31;100558.47;5074545;28;20123;-67
2022/07/12 11:21:17;;;;;;;8.02;1.23;;;;;;;23.03;39.24;100555.72;5074123;28;20094;-67
2022/07/12 11:23:45;;;;;;;3.10;1.20;;;;;;;23.04;39.22;100560.16;5074461;28;20489;-67
2022/07/12 11:26:14;;;;;;;2.55;0.95;;;;;;;23.05;38.68;100564.56;5074013;28;20036;-67
2022/07/12 11:28:45;;;;;;;3.75;1.05;;;;;;;23.23;38.54;100559.84;5074102;28;20481;-67
2022/07/12 11:31:15;;;;;;;3.50;1.08;;;;;;;23.47;37.88;100558.22;5074178;28;20067;-67
2022/07/12 11:33:45;;;;;;;1.50;0.80;;;;;;;23.76;37.10;100552.31;5074105;28;20123;-67
2022/07/12 11:36:14;;;;;;;2.85;1.05;;;;;;;23.77;36.70;100551.28;5056134;28;20485;-68
2022/07/12 11:38:46;;;;;;;3.63;1.05;;;;;;;24.08;37.02;100538.66;5073719;28;20437;-67
2022/07/12 11:41:15;;;;;;;2.73;1.10;;;;;;;23.96;36.72;100532.72;5073630;28;20417;-67
2022/07/12 11:43:44;;;;;;;3.85;0.90;;;;;;;24.15;36.78;100549.72;5073938;28;20046;-67